sensor_id;sensor_type;location;lat;lon;timestamp;P1;durP1;ratioP1;P2;durP2;ratioP2
13048;SDS011;6591;51.446;5.404;2023-07-29T00:01:48;3.58;;;2.80;;
13048;SDS011;6591;51.446;5.404;2023-07-29T00:04:16;2.95;;;2.65;;
13048;SDS011;6591;51.446;5.404;2023-07-29T00:06:43;3.63;;;3.00;;
13048;SDS011;6591;51.446;5.404;2023-07-29T00:09:13;2.95;;;2.58;;
13048;SDS011;6591;51.446;5.404;2023-07-29T00:11:40;2.80;;;2.60;;
13048;SDS011;6591;51.446;5.404;2023-07-29T00:14:07;3.83;;;3.00;;
13048;SDS011;6591;51.446;5.404;2023-07-29T00:16:34;2.97;;;2.78;;
13048;SDS011;6591;51.446;5.404;2023-07-29T00:19:03;3.47;;;2.58;;
13048;SDS011;6591;51.446;5.404;2023-07-29T00:21:31;2.88;;;2.67;;
13048;SDS011;6591;51.446;5.404;2023-07-29T00:23:58;3.13;;;2.58;;
13048;SDS011;6591;51.446;5.404;2023-07-29T00:26:27;5.65;;;2.95;;
13048;SDS011;6591;51.446;5.404;2023-07-29T00:28:57;2.53;;;2.33;;
13048;SDS011;6591;51.446;5.404;2023-07-29T00:31:25;2.70;;;2.50;;
13048;SDS011;6591;51.446;5.404;2023-07-29T00:33:53;3.00;;;2.70;;
13048;SDS011;6591;51.446;5.404;2023-07-29T00:36:21;2.95;;;2.50;;
13048;SDS011;6591;51.446;5.404;2023-07-29T00:38:48;2.47;;;2.28;;
13048;SDS011;6591;51.446;5.404;2023-07-29T00:41:15;3.13;;;2.60;;
13048;SDS011;6591;51.446;5.404;2023-07-29T00:43:42;2.97;;;2.60;;
13048;SDS011;6591;51.446;5.404;2023-07-29T00:46:09;2.90;;;2.60;;
13048;SDS011;6591;51.446;5.404;2023-07-29T00:48:39;2.58;;;2.38;;
13048;SDS011;6591;51.446;5.404;2023-07-29T00:51:07;2.78;;;2.58;;
13048;SDS011;6591;51.446;5.404;2023-07-29T00:53:34;2.85;;;2.65;;
13048;SDS011;6591;51.446;5.404;2023-07-29T00:56:01;3.22;;;2.75;;
13048;SDS011;6591;51.446;5.404;2023-07-29T00:58:29;3.05;;;2.70;;
13048;SDS011;6591;51.446;5.404;2023-07-29T01:00:57;2.75;;;2.55;;
13048;SDS011;6591;51.446;5.404;2023-07-29T01:03:25;3.17;;;2.88;;
13048;SDS011;6591;51.446;5.404;2023-07-29T01:06:00;2.95;;;2.75;;
13048;SDS011;6591;51.446;5.404;2023-07-29T01:08:55;3.83;;;2.95;;
13048;SDS011;6591;51.446;5.404;2023-07-29T01:11:35;2.83;;;2.60;;
13048;SDS011;6591;51.446;5.404;2023-07-29T01:17:47;2.50;;;2.30;;
13048;SDS011;6591;51.446;5.404;2023-07-29T01:20:22;3.17;;;2.88;;
13048;SDS011;6591;51.446;5.404;2023-07-29T01:22:52;3.60;;;2.67;;
13048;SDS011;6591;51.446;5.404;2023-07-29T01:25:19;2.95;;;2.65;;
13048;SDS011;6591;51.446;5.404;2023-07-29T01:27:48;3.20;;;2.95;;
13048;SDS011;6591;51.446;5.404;2023-07-29T01:30:21;3.22;;;2.92;;
13048;SDS011;6591;51.446;5.404;2023-07-29T01:33:14;4.15;;;2.90;;
13048;SDS011;6591;51.446;5.404;2023-07-29T01:35:54;3.08;;;2.78;;
13048;SDS011;6591;51.446;5.404;2023-07-29T01:38:33;3.47;;;3.05;;
13048;SDS011;6591;51.446;5.404;2023-07-29T01:41:06;2.97;;;2.67;;
13048;SDS011;6591;51.446;5.404;2023-07-29T01:43:36;3.13;;;2.80;;
13048;SDS011;6591;51.446;5.404;2023-07-29T01:46:10;3.83;;;3.20;;
13048;SDS011;6591;51.446;5.404;2023-07-29T01:48:39;3.33;;;3.03;;
13048;SDS011;6591;51.446;5.404;2023-07-29T01:51:06;4.20;;;3.40;;
13048;SDS011;6591;51.446;5.404;2023-07-29T01:53:37;4.38;;;2.97;;
13048;SDS011;6591;51.446;5.404;2023-07-29T01:56:04;4.53;;;2.95;;
13048;SDS011;6591;51.446;5.404;2023-07-29T01:58:32;3.80;;;3.25;;
13048;SDS011;6591;51.446;5.404;2023-07-29T02:01:00;3.40;;;3.10;;
13048;SDS011;6591;51.446;5.404;2023-07-29T02:03:27;3.35;;;3.03;;
13048;SDS011;6591;51.446;5.404;2023-07-29T02:05:54;5.00;;;3.10;;
13048;SDS011;6591;51.446;5.404;2023-07-29T02:08:22;3.47;;;3.10;;
13048;SDS011;6591;51.446;5.404;2023-07-29T02:10:49;4.35;;;2.92;;
13048;SDS011;6591;51.446;5.404;2023-07-29T02:13:16;3.55;;;2.70;;
13048;SDS011;6591;51.446;5.404;2023-07-29T02:15:43;5.95;;;3.58;;
13048;SDS011;6591;51.446;5.404;2023-07-29T02:18:10;2.97;;;2.60;;
13048;SDS011;6591;51.446;5.404;2023-07-29T02:20:38;3.38;;;3.03;;
13048;SDS011;6591;51.446;5.404;2023-07-29T02:23:05;3.47;;;3.17;;
13048;SDS011;6591;51.446;5.404;2023-07-29T02:25:34;3.20;;;2.90;;
13048;SDS011;6591;51.446;5.404;2023-07-29T02:28:03;3.30;;;2.85;;
13048;SDS011;6591;51.446;5.404;2023-07-29T02:30:30;4.35;;;3.25;;
13048;SDS011;6591;51.446;5.404;2023-07-29T02:32:58;3.65;;;2.70;;
13048;SDS011;6591;51.446;5.404;2023-07-29T02:35:27;2.67;;;2.42;;
13048;SDS011;6591;51.446;5.404;2023-07-29T02:37:55;3.70;;;2.85;;
13048;SDS011;6591;51.446;5.404;2023-07-29T02:40:22;3.63;;;3.05;;
13048;SDS011;6591;51.446;5.404;2023-07-29T02:42:53;3.85;;;3.45;;
13048;SDS011;6591;51.446;5.404;2023-07-29T02:45:20;4.43;;;3.47;;
13048;SDS011;6591;51.446;5.404;2023-07-29T02:47:48;4.68;;;3.80;;
13048;SDS011;6591;51.446;5.404;2023-07-29T02:50:15;3.80;;;3.08;;
13048;SDS011;6591;51.446;5.404;2023-07-29T02:52:43;4.03;;;3.20;;
13048;SDS011;6591;51.446;5.404;2023-07-29T02:55:10;3.75;;;3.33;;
13048;SDS011;6591;51.446;5.404;2023-07-29T02:57:37;3.92;;;3.20;;
13048;SDS011;6591;51.446;5.404;2023-07-29T03:00:04;4.57;;;3.60;;
13048;SDS011;6591;51.446;5.404;2023-07-29T03:02:34;3.55;;;2.97;;
13048;SDS011;6591;51.446;5.404;2023-07-29T03:05:01;3.88;;;3.30;;
13048;SDS011;6591;51.446;5.404;2023-07-29T03:07:29;3.38;;;3.08;;
13048;SDS011;6591;51.446;5.404;2023-07-29T03:09:56;3.03;;;2.80;;
13048;SDS011;6591;51.446;5.404;2023-07-29T03:12:23;3.40;;;3.10;;
13048;SDS011;6591;51.446;5.404;2023-07-29T03:14:50;3.53;;;3.08;;
13048;SDS011;6591;51.446;5.404;2023-07-29T03:17:17;3.20;;;2.90;;
13048;SDS011;6591;51.446;5.404;2023-07-29T03:19:45;4.28;;;3.88;;
13048;SDS011;6591;51.446;5.404;2023-07-29T03:22:12;4.05;;;3.30;;
13048;SDS011;6591;51.446;5.404;2023-07-29T03:24:39;4.28;;;3.60;;
13048;SDS011;6591;51.446;5.404;2023-07-29T03:27:06;5.18;;;3.50;;
13048;SDS011;6591;51.446;5.404;2023-07-29T03:29:36;3.58;;;3.25;;
13048;SDS011;6591;51.446;5.404;2023-07-29T03:32:05;3.47;;;3.00;;
13048;SDS011;6591;51.446;5.404;2023-07-29T03:34:33;3.67;;;3.22;;
13048;SDS011;6591;51.446;5.404;2023-07-29T03:37:01;2.90;;;2.60;;
13048;SDS011;6591;51.446;5.404;2023-07-29T03:39:28;3.20;;;2.90;;
13048;SDS011;6591;51.446;5.404;2023-07-29T03:41:57;3.20;;;2.92;;
13048;SDS011;6591;51.446;5.404;2023-07-29T03:44:25;3.53;;;2.45;;
13048;SDS011;6591;51.446;5.404;2023-07-29T03:46:52;2.92;;;2.63;;
13048;SDS011;6591;51.446;5.404;2023-07-29T03:49:19;2.80;;;2.50;;
13048;SDS011;6591;51.446;5.404;2023-07-29T03:51:46;4.75;;;3.10;;
13048;SDS011;6591;51.446;5.404;2023-07-29T03:54:14;4.18;;;2.90;;
13048;SDS011;6591;51.446;5.404;2023-07-29T03:56:41;3.90;;;2.83;;
13048;SDS011;6591;51.446;5.404;2023-07-29T03:59:08;3.25;;;2.80;;
13048;SDS011;6591;51.446;5.404;2023-07-29T04:01:35;3.22;;;2.65;;
13048;SDS011;6591;51.446;5.404;2023-07-29T04:04:05;4.80;;;2.75;;
13048;SDS011;6591;51.446;5.404;2023-07-29T04:06:32;2.90;;;2.60;;
13048;SDS011;6591;51.446;5.404;2023-07-29T04:09:00;3.13;;;2.83;;
13048;SDS011;6591;51.446;5.404;2023-07-29T04:11:28;3.38;;;2.53;;
13048;SDS011;6591;51.446;5.404;2023-07-29T04:13:55;2.80;;;2.50;;
13048;SDS011;6591;51.446;5.404;2023-07-29T04:16:22;2.97;;;2.60;;
13048;SDS011;6591;51.446;5.404;2023-07-29T04:18:50;3.40;;;2.40;;
13048;SDS011;6591;51.446;5.404;2023-07-29T04:21:17;3.88;;;2.85;;
13048;SDS011;6591;51.446;5.404;2023-07-29T04:23:44;2.70;;;2.42;;
13048;SDS011;6591;51.446;5.404;2023-07-29T04:26:11;2.70;;;2.50;;
13048;SDS011;6591;51.446;5.404;2023-07-29T04:28:38;3.13;;;2.78;;
13048;SDS011;6591;51.446;5.404;2023-07-29T04:31:06;2.38;;;2.17;;
13048;SDS011;6591;51.446;5.404;2023-07-29T04:33:34;2.53;;;2.28;;
13048;SDS011;6591;51.446;5.404;2023-07-29T04:36:05;4.03;;;2.50;;
13048;SDS011;6591;51.446;5.404;2023-07-29T04:38:33;2.80;;;2.40;;
13048;SDS011;6591;51.446;5.404;2023-07-29T04:41:01;3.25;;;2.45;;
13048;SDS011;6591;51.446;5.404;2023-07-29T04:43:30;2.95;;;2.63;;
13048;SDS011;6591;51.446;5.404;2023-07-29T04:45:58;2.88;;;2.42;;
13048;SDS011;6591;51.446;5.404;2023-07-29T04:48:26;3.67;;;2.50;;
13048;SDS011;6591;51.446;5.404;2023-07-29T04:50:53;3.08;;;2.63;;
13048;SDS011;6591;51.446;5.404;2023-07-29T04:53:20;6.97;;;2.28;;
13048;SDS011;6591;51.446;5.404;2023-07-29T04:55:48;2.60;;;2.40;;
13048;SDS011;6591;51.446;5.404;2023-07-29T04:58:15;2.53;;;2.20;;
13048;SDS011;6591;51.446;5.404;2023-07-29T05:00:42;3.05;;;2.47;;
13048;SDS011;6591;51.446;5.404;2023-07-29T05:03:10;2.95;;;2.25;;
13048;SDS011;6591;51.446;5.404;2023-07-29T05:05:40;3.15;;;2.58;;
13048;SDS011;6591;51.446;5.404;2023-07-29T05:08:07;2.60;;;2.40;;
13048;SDS011;6591;51.446;5.404;2023-07-29T05:10:35;3.13;;;2.65;;
13048;SDS011;6591;51.446;5.404;2023-07-29T05:13:05;2.80;;;2.42;;
13048;SDS011;6591;51.446;5.404;2023-07-29T05:15:33;2.33;;;2.10;;
13048;SDS011;6591;51.446;5.404;2023-07-29T05:18:00;3.65;;;2.35;;
13048;SDS011;6591;51.446;5.404;2023-07-29T05:20:30;2.90;;;2.13;;
13048;SDS011;6591;51.446;5.404;2023-07-29T05:22:57;2.42;;;2.22;;
13048;SDS011;6591;51.446;5.404;2023-07-29T05:25:24;2.60;;;2.40;;
13048;SDS011;6591;51.446;5.404;2023-07-29T05:27:51;5.10;;;3.00;;
13048;SDS011;6591;51.446;5.404;2023-07-29T05:30:19;2.42;;;2.22;;
13048;SDS011;6591;51.446;5.404;2023-07-29T05:32:46;3.13;;;2.42;;
13048;SDS011;6591;51.446;5.404;2023-07-29T05:35:14;2.78;;;2.45;;
13048;SDS011;6591;51.446;5.404;2023-07-29T05:37:42;2.53;;;2.20;;
13048;SDS011;6591;51.446;5.404;2023-07-29T05:40:09;2.97;;;2.28;;
13048;SDS011;6591;51.446;5.404;2023-07-29T05:42:38;3.38;;;2.10;;
13048;SDS011;6591;51.446;5.404;2023-07-29T05:45:06;2.65;;;2.10;;
13048;SDS011;6591;51.446;5.404;2023-07-29T05:47:34;2.30;;;2.10;;
13048;SDS011;6591;51.446;5.404;2023-07-29T05:50:03;2.42;;;2.05;;
13048;SDS011;6591;51.446;5.404;2023-07-29T05:52:31;4.70;;;2.15;;
13048;SDS011;6591;51.446;5.404;2023-07-29T05:54:59;2.97;;;2.20;;
13048;SDS011;6591;51.446;5.404;2023-07-29T05:57:27;2.65;;;2.05;;
13048;SDS011;6591;51.446;5.404;2023-07-29T05:59:55;2.30;;;2.10;;
13048;SDS011;6591;51.446;5.404;2023-07-29T06:02:22;3.53;;;2.10;;
13048;SDS011;6591;51.446;5.404;2023-07-29T06:04:51;2.53;;;2.20;;
13048;SDS011;6591;51.446;5.404;2023-07-29T06:07:18;2.63;;;2.15;;
13048;SDS011;6591;51.446;5.404;2023-07-29T06:09:46;2.20;;;1.90;;
13048;SDS011;6591;51.446;5.404;2023-07-29T06:12:13;3.35;;;2.33;;
13048;SDS011;6591;51.446;5.404;2023-07-29T06:14:42;4.05;;;2.00;;
13048;SDS011;6591;51.446;5.404;2023-07-29T06:17:09;2.67;;;2.22;;
13048;SDS011;6591;51.446;5.404;2023-07-29T06:19:38;2.30;;;2.10;;
13048;SDS011;6591;51.446;5.404;2023-07-29T06:22:05;3.05;;;2.22;;
13048;SDS011;6591;51.446;5.404;2023-07-29T06:24:32;1.80;;;1.70;;
13048;SDS011;6591;51.446;5.404;2023-07-29T06:27:00;2.42;;;2.20;;
13048;SDS011;6591;51.446;5.404;2023-07-29T06:29:27;2.53;;;2.00;;
13048;SDS011;6591;51.446;5.404;2023-07-29T06:31:54;3.60;;;2.30;;
13048;SDS011;6591;51.446;5.404;2023-07-29T06:34:21;2.47;;;2.00;;
13048;SDS011;6591;51.446;5.404;2023-07-29T06:36:52;2.63;;;1.90;;
13048;SDS011;6591;51.446;5.404;2023-07-29T06:39:19;2.83;;;1.90;;
13048;SDS011;6591;51.446;5.404;2023-07-29T06:41:46;2.22;;;1.88;;
13048;SDS011;6591;51.446;5.404;2023-07-29T06:44:17;1.90;;;1.80;;
13048;SDS011;6591;51.446;5.404;2023-07-29T06:46:44;2.42;;;2.17;;
13048;SDS011;6591;51.446;5.404;2023-07-29T06:49:11;2.55;;;1.88;;
13048;SDS011;6591;51.446;5.404;2023-07-29T06:51:41;2.42;;;1.92;;
13048;SDS011;6591;51.446;5.404;2023-07-29T06:54:09;2.70;;;2.05;;
13048;SDS011;6591;51.446;5.404;2023-07-29T06:56:36;2.35;;;2.15;;
13048;SDS011;6591;51.446;5.404;2023-07-29T06:59:05;2.00;;;1.80;;
13048;SDS011;6591;51.446;5.404;2023-07-29T07:01:32;2.47;;;2.05;;
13048;SDS011;6591;51.446;5.404;2023-07-29T07:04:00;2.58;;;1.90;;
13048;SDS011;6591;51.446;5.404;2023-07-29T07:06:28;3.50;;;2.00;;
13048;SDS011;6591;51.446;5.404;2023-07-29T07:08:55;2.97;;;2.10;;
13048;SDS011;6591;51.446;5.404;2023-07-29T07:11:25;2.13;;;1.92;;
13048;SDS011;6591;51.446;5.404;2023-07-29T07:13:52;2.88;;;2.15;;
13048;SDS011;6591;51.446;5.404;2023-07-29T07:16:19;2.30;;;1.90;;
13048;SDS011;6591;51.446;5.404;2023-07-29T07:18:47;1.83;;;1.60;;
13048;SDS011;6591;51.446;5.404;2023-07-29T07:21:14;2.42;;;2.00;;
13048;SDS011;6591;51.446;5.404;2023-07-29T07:23:41;2.00;;;1.70;;
13048;SDS011;6591;51.446;5.404;2023-07-29T07:26:08;1.75;;;1.65;;
13048;SDS011;6591;51.446;5.404;2023-07-29T07:28:35;2.00;;;1.80;;
13048;SDS011;6591;51.446;5.404;2023-07-29T07:31:05;2.38;;;2.10;;
13048;SDS011;6591;51.446;5.404;2023-07-29T07:33:31;3.50;;;1.88;;
13048;SDS011;6591;51.446;5.404;2023-07-29T07:35:59;1.83;;;1.70;;
13048;SDS011;6591;51.446;5.404;2023-07-29T07:38:26;1.83;;;1.38;;
13048;SDS011;6591;51.446;5.404;2023-07-29T07:40:54;2.70;;;1.58;;
13048;SDS011;6591;51.446;5.404;2023-07-29T07:43:23;1.40;;;1.30;;
13048;SDS011;6591;51.446;5.404;2023-07-29T07:45:51;2.20;;;1.58;;
13048;SDS011;6591;51.446;5.404;2023-07-29T07:48:26;2.38;;;1.65;;
13048;SDS011;6591;51.446;5.404;2023-07-29T07:50:54;2.00;;;1.80;;
13048;SDS011;6591;51.446;5.404;2023-07-29T07:53:21;2.58;;;1.85;;
13048;SDS011;6591;51.446;5.404;2023-07-29T07:55:48;1.80;;;1.63;;
13048;SDS011;6591;51.446;5.404;2023-07-29T07:58:18;1.50;;;1.40;;
13048;SDS011;6591;51.446;5.404;2023-07-29T08:00:46;1.73;;;1.50;;
13048;SDS011;6591;51.446;5.404;2023-07-29T08:03:13;2.08;;;1.60;;
13048;SDS011;6591;51.446;5.404;2023-07-29T08:05:40;1.50;;;1.40;;
13048;SDS011;6591;51.446;5.404;2023-07-29T08:08:07;1.60;;;1.50;;
13048;SDS011;6591;51.446;5.404;2023-07-29T08:10:34;2.80;;;1.55;;
13048;SDS011;6591;51.446;5.404;2023-07-29T08:13:05;2.47;;;1.55;;
13048;SDS011;6591;51.446;5.404;2023-07-29T08:15:33;2.08;;;1.25;;
13048;SDS011;6591;51.446;5.404;2023-07-29T08:18:00;1.45;;;1.30;;
13048;SDS011;6591;51.446;5.404;2023-07-29T08:20:27;1.65;;;1.50;;
13048;SDS011;6591;51.446;5.404;2023-07-29T08:22:55;1.63;;;1.50;;
13048;SDS011;6591;51.446;5.404;2023-07-29T08:25:22;1.60;;;1.50;;
13048;SDS011;6591;51.446;5.404;2023-07-29T08:27:51;1.55;;;1.30;;
13048;SDS011;6591;51.446;5.404;2023-07-29T08:30:18;1.63;;;1.30;;
13048;SDS011;6591;51.446;5.404;2023-07-29T08:32:52;1.40;;;1.30;;
13048;SDS011;6591;51.446;5.404;2023-07-29T08:35:19;1.38;;;1.27;;
13048;SDS011;6591;51.446;5.404;2023-07-29T08:37:46;1.63;;;1.45;;
13048;SDS011;6591;51.446;5.404;2023-07-29T08:40:13;2.83;;;1.35;;
13048;SDS011;6591;51.446;5.404;2023-07-29T08:42:40;2.47;;;1.30;;
13048;SDS011;6591;51.446;5.404;2023-07-29T08:45:11;1.55;;;1.30;;
13048;SDS011;6591;51.446;5.404;2023-07-29T08:47:40;1.70;;;1.30;;
13048;SDS011;6591;51.446;5.404;2023-07-29T08:50:08;2.28;;;1.20;;
13048;SDS011;6591;51.446;5.404;2023-07-29T08:52:40;1.40;;;1.27;;
13048;SDS011;6591;51.446;5.404;2023-07-29T08:55:10;1.30;;;1.17;;
13048;SDS011;6591;51.446;5.404;2023-07-29T08:57:38;1.55;;;1.45;;
13048;SDS011;6591;51.446;5.404;2023-07-29T09:00:05;1.40;;;1.30;;
13048;SDS011;6591;51.446;5.404;2023-07-29T09:02:33;1.50;;;1.40;;
13048;SDS011;6591;51.446;5.404;2023-07-29T09:05:01;1.40;;;1.27;;
13048;SDS011;6591;51.446;5.404;2023-07-29T09:07:28;1.35;;;1.25;;
13048;SDS011;6591;51.446;5.404;2023-07-29T09:09:56;1.20;;;1.10;;
13048;SDS011;6591;51.446;5.404;2023-07-29T09:12:23;1.55;;;1.27;;
13048;SDS011;6591;51.446;5.404;2023-07-29T09:14:54;1.30;;;1.20;;
13048;SDS011;6591;51.446;5.404;2023-07-29T09:17:21;1.60;;;1.20;;
13048;SDS011;6591;51.446;5.404;2023-07-29T09:19:49;1.52;;;1.27;;
13048;SDS011;6591;51.446;5.404;2023-07-29T09:22:18;1.25;;;1.15;;
13048;SDS011;6591;51.446;5.404;2023-07-29T09:24:47;1.40;;;1.30;;
13048;SDS011;6591;51.446;5.404;2023-07-29T09:27:27;1.17;;;1.08;;
13048;SDS011;6591;51.446;5.404;2023-07-29T09:29:58;1.58;;;1.15;;
13048;SDS011;6591;51.446;5.404;2023-07-29T09:32:27;1.40;;;1.30;;
13048;SDS011;6591;51.446;5.404;2023-07-29T09:34:54;1.30;;;1.17;;
13048;SDS011;6591;51.446;5.404;2023-07-29T09:37:22;1.20;;;1.10;;
13048;SDS011;6591;51.446;5.404;2023-07-29T09:39:51;1.65;;;1.25;;
13048;SDS011;6591;51.446;5.404;2023-07-29T09:42:21;1.77;;;1.15;;
13048;SDS011;6591;51.446;5.404;2023-07-29T09:44:49;1.83;;;1.00;;
13048;SDS011;6591;51.446;5.404;2023-07-29T09:47:20;1.10;;;1.00;;
13048;SDS011;6591;51.446;5.404;2023-07-29T09:49:50;1.23;;;1.10;;
13048;SDS011;6591;51.446;5.404;2023-07-29T09:52:19;1.63;;;1.20;;
13048;SDS011;6591;51.446;5.404;2023-07-29T09:54:49;1.25;;;1.15;;
13048;SDS011;6591;51.446;5.404;2023-07-29T09:57:18;1.30;;;1.20;;
13048;SDS011;6591;51.446;5.404;2023-07-29T09:59:55;1.75;;;1.00;;
13048;SDS011;6591;51.446;5.404;2023-07-29T10:02:23;1.40;;;1.08;;
13048;SDS011;6591;51.446;5.404;2023-07-29T10:04:54;2.45;;;1.20;;
13048;SDS011;6591;51.446;5.404;2023-07-29T10:07:23;1.30;;;1.20;;
13048;SDS011;6591;51.446;5.404;2023-07-29T10:09:51;1.23;;;1.13;;
13048;SDS011;6591;51.446;5.404;2023-07-29T10:12:21;1.40;;;1.30;;
13048;SDS011;6591;51.446;5.404;2023-07-29T10:14:51;2.22;;;1.42;;
13048;SDS011;6591;51.446;5.404;2023-07-29T10:17:19;1.30;;;1.13;;
13048;SDS011;6591;51.446;5.404;2023-07-29T10:19:48;1.80;;;1.33;;
13048;SDS011;6591;51.446;5.404;2023-07-29T10:22:16;1.30;;;1.20;;
13048;SDS011;6591;51.446;5.404;2023-07-29T10:24:48;1.35;;;1.20;;
13048;SDS011;6591;51.446;5.404;2023-07-29T10:27:18;1.85;;;1.40;;
13048;SDS011;6591;51.446;5.404;2023-07-29T10:29:49;1.17;;;1.08;;
13048;SDS011;6591;51.446;5.404;2023-07-29T10:32:17;1.40;;;1.30;;
13048;SDS011;6591;51.446;5.404;2023-07-29T10:34:55;1.40;;;1.30;;
13048;SDS011;6591;51.446;5.404;2023-07-29T10:37:22;2.05;;;1.30;;
13048;SDS011;6591;51.446;5.404;2023-07-29T10:39:54;1.20;;;1.10;;
13048;SDS011;6591;51.446;5.404;2023-07-29T10:42:22;1.27;;;1.17;;
13048;SDS011;6591;51.446;5.404;2023-07-29T10:44:50;1.20;;;1.10;;
13048;SDS011;6591;51.446;5.404;2023-07-29T10:47:20;4.68;;;1.40;;
13048;SDS011;6591;51.446;5.404;2023-07-29T10:49:53;1.85;;;1.13;;
13048;SDS011;6591;51.446;5.404;2023-07-29T10:52:30;1.35;;;1.25;;
13048;SDS011;6591;51.446;5.404;2023-07-29T10:55:01;1.73;;;1.10;;
13048;SDS011;6591;51.446;5.404;2023-07-29T10:57:31;1.73;;;1.23;;
13048;SDS011;6591;51.446;5.404;2023-07-29T11:00:00;1.30;;;1.20;;
13048;SDS011;6591;51.446;5.404;2023-07-29T11:02:34;1.17;;;1.08;;
13048;SDS011;6591;51.446;5.404;2023-07-29T11:05:16;1.13;;;1.02;;
13048;SDS011;6591;51.446;5.404;2023-07-29T11:07:45;1.35;;;1.05;;
13048;SDS011;6591;51.446;5.404;2023-07-29T11:10:15;1.38;;;1.25;;
13048;SDS011;6591;51.446;5.404;2023-07-29T11:12:49;1.20;;;1.10;;
13048;SDS011;6591;51.446;5.404;2023-07-29T11:15:22;1.30;;;1.17;;
13048;SDS011;6591;51.446;5.404;2023-07-29T11:18:01;2.10;;;1.25;;
13048;SDS011;6591;51.446;5.404;2023-07-29T11:20:29;1.48;;;1.38;;
13048;SDS011;6591;51.446;5.404;2023-07-29T11:23:00;3.92;;;1.50;;
13048;SDS011;6591;51.446;5.404;2023-07-29T11:25:30;2.25;;;1.40;;
13048;SDS011;6591;51.446;5.404;2023-07-29T11:27:59;3.78;;;1.40;;
13048;SDS011;6591;51.446;5.404;2023-07-29T11:30:32;1.50;;;1.27;;
13048;SDS011;6591;51.446;5.404;2023-07-29T11:33:00;3.08;;;1.27;;
13048;SDS011;6591;51.446;5.404;2023-07-29T11:35:27;2.08;;;1.45;;
13048;SDS011;6591;51.446;5.404;2023-07-29T11:37:55;1.85;;;1.52;;
13048;SDS011;6591;51.446;5.404;2023-07-29T11:40:25;1.40;;;1.30;;
13048;SDS011;6591;51.446;5.404;2023-07-29T11:42:52;1.60;;;1.25;;
13048;SDS011;6591;51.446;5.404;2023-07-29T11:45:21;1.70;;;1.27;;
13048;SDS011;6591;51.446;5.404;2023-07-29T11:48:01;1.88;;;1.40;;
13048;SDS011;6591;51.446;5.404;2023-07-29T11:50:29;1.48;;;1.38;;
13048;SDS011;6591;51.446;5.404;2023-07-29T11:52:56;1.58;;;1.40;;
13048;SDS011;6591;51.446;5.404;2023-07-29T11:55:24;1.60;;;1.48;;
13048;SDS011;6591;51.446;5.404;2023-07-29T11:57:51;1.50;;;1.35;;
13048;SDS011;6591;51.446;5.404;2023-07-29T12:00:19;1.45;;;1.35;;
13048;SDS011;6591;51.446;5.404;2023-07-29T12:02:48;1.45;;;1.30;;
13048;SDS011;6591;51.446;5.404;2023-07-29T12:05:17;1.42;;;1.33;;
13048;SDS011;6591;51.446;5.404;2023-07-29T12:07:48;3.97;;;2.05;;
13048;SDS011;6591;51.446;5.404;2023-07-29T12:10:16;6.70;;;2.53;;
13048;SDS011;6591;51.446;5.404;2023-07-29T12:12:48;3.50;;;2.00;;
13048;SDS011;6591;51.446;5.404;2023-07-29T12:15:24;5.18;;;1.90;;
13048;SDS011;6591;51.446;5.404;2023-07-29T12:17:54;2.65;;;1.75;;
13048;SDS011;6591;51.446;5.404;2023-07-29T12:20:25;1.95;;;1.83;;
13048;SDS011;6591;51.446;5.404;2023-07-29T12:22:54;4.13;;;1.60;;
13048;SDS011;6591;51.446;5.404;2023-07-29T12:25:25;1.73;;;1.58;;
13048;SDS011;6591;51.446;5.404;2023-07-29T12:27:53;3.10;;;1.88;;
13048;SDS011;6591;51.446;5.404;2023-07-29T12:30:21;2.58;;;1.70;;
13048;SDS011;6591;51.446;5.404;2023-07-29T12:32:51;2.15;;;1.65;;
13048;SDS011;6591;51.446;5.404;2023-07-29T12:35:19;5.30;;;2.65;;
13048;SDS011;6591;51.446;5.404;2023-07-29T12:37:46;8.10;;;2.10;;
13048;SDS011;6591;51.446;5.404;2023-07-29T12:40:23;3.65;;;1.80;;
13048;SDS011;6591;51.446;5.404;2023-07-29T12:42:51;1.45;;;1.00;;
13048;SDS011;6591;51.446;5.404;2023-07-29T12:45:20;1.80;;;0.90;;
13048;SDS011;6591;51.446;5.404;2023-07-29T12:47:49;1.02;;;0.93;;
13048;SDS011;6591;51.446;5.404;2023-07-29T12:50:17;1.30;;;0.80;;
13048;SDS011;6591;51.446;5.404;2023-07-29T12:52:45;2.10;;;0.98;;
13048;SDS011;6591;51.446;5.404;2023-07-29T12:55:12;1.50;;;0.90;;
13048;SDS011;6591;51.446;5.404;2023-07-29T12:57:41;1.38;;;1.02;;
13048;SDS011;6591;51.446;5.404;2023-07-29T13:00:10;1.83;;;1.08;;
13048;SDS011;6591;51.446;5.404;2023-07-29T13:02:38;1.05;;;0.95;;
13048;SDS011;6591;51.446;5.404;2023-07-29T13:05:07;1.38;;;1.23;;
13048;SDS011;6591;51.446;5.404;2023-07-29T13:07:39;1.50;;;1.40;;
13048;SDS011;6591;51.446;5.404;2023-07-29T13:10:10;0.98;;;0.95;;
13048;SDS011;6591;51.446;5.404;2023-07-29T13:12:39;1.30;;;1.20;;
13048;SDS011;6591;51.446;5.404;2023-07-29T13:15:06;1.77;;;1.30;;
13048;SDS011;6591;51.446;5.404;2023-07-29T13:17:34;1.50;;;1.40;;
13048;SDS011;6591;51.446;5.404;2023-07-29T13:20:02;1.40;;;1.20;;
13048;SDS011;6591;51.446;5.404;2023-07-29T13:22:30;1.40;;;1.30;;
13048;SDS011;6591;51.446;5.404;2023-07-29T13:24:57;2.00;;;1.40;;
13048;SDS011;6591;51.446;5.404;2023-07-29T13:27:24;1.75;;;1.48;;
13048;SDS011;6591;51.446;5.404;2023-07-29T13:29:53;1.90;;;1.70;;
13048;SDS011;6591;51.446;5.404;2023-07-29T13:32:20;1.42;;;1.33;;
13048;SDS011;6591;51.446;5.404;2023-07-29T13:34:48;1.40;;;1.20;;
13048;SDS011;6591;51.446;5.404;2023-07-29T13:37:15;1.60;;;1.50;;
13048;SDS011;6591;51.446;5.404;2023-07-29T13:39:42;1.67;;;1.27;;
13048;SDS011;6591;51.446;5.404;2023-07-29T13:42:09;1.30;;;1.20;;
13048;SDS011;6591;51.446;5.404;2023-07-29T13:44:40;1.25;;;1.15;;
13048;SDS011;6591;51.446;5.404;2023-07-29T13:47:07;1.60;;;1.50;;
13048;SDS011;6591;51.446;5.404;2023-07-29T13:49:34;1.73;;;1.63;;
13048;SDS011;6591;51.446;5.404;2023-07-29T13:52:01;2.08;;;1.52;;
13048;SDS011;6591;51.446;5.404;2023-07-29T13:54:29;2.20;;;1.50;;
13048;SDS011;6591;51.446;5.404;2023-07-29T13:56:56;1.50;;;1.40;;
13048;SDS011;6591;51.446;5.404;2023-07-29T13:59:23;1.73;;;1.55;;
13048;SDS011;6591;51.446;5.404;2023-07-29T14:01:50;3.60;;;1.40;;
13048;SDS011;6591;51.446;5.404;2023-07-29T14:04:18;1.23;;;1.13;;
13048;SDS011;6591;51.446;5.404;2023-07-29T14:06:45;2.42;;;1.30;;
13048;SDS011;6591;51.446;5.404;2023-07-29T14:09:17;1.27;;;1.17;;
13048;SDS011;6591;51.446;5.404;2023-07-29T14:11:44;1.88;;;1.10;;
13048;SDS011;6591;51.446;5.404;2023-07-29T14:14:11;1.15;;;1.10;;
13048;SDS011;6591;51.446;5.404;2023-07-29T14:16:38;1.38;;;1.27;;
13048;SDS011;6591;51.446;5.404;2023-07-29T14:19:06;1.27;;;1.17;;
13048;SDS011;6591;51.446;5.404;2023-07-29T14:21:33;1.77;;;1.15;;
13048;SDS011;6591;51.446;5.404;2023-07-29T14:24:00;1.40;;;1.30;;
13048;SDS011;6591;51.446;5.404;2023-07-29T14:26:27;1.42;;;1.17;;
13048;SDS011;6591;51.446;5.404;2023-07-29T14:28:54;1.33;;;1.23;;
13048;SDS011;6591;51.446;5.404;2023-07-29T14:31:22;0.95;;;0.93;;
13048;SDS011;6591;51.446;5.404;2023-07-29T14:33:49;1.23;;;1.13;;
13048;SDS011;6591;51.446;5.404;2023-07-29T14:36:16;1.10;;;1.08;;
13048;SDS011;6591;51.446;5.404;2023-07-29T14:38:43;1.20;;;1.10;;
13048;SDS011;6591;51.446;5.404;2023-07-29T14:41:10;1.33;;;1.23;;
13048;SDS011;6591;51.446;5.404;2023-07-29T14:43:38;1.20;;;1.02;;
13048;SDS011;6591;51.446;5.404;2023-07-29T14:46:05;1.30;;;1.20;;
13048;SDS011;6591;51.446;5.404;2023-07-29T14:48:33;1.20;;;1.10;;
13048;SDS011;6591;51.446;5.404;2023-07-29T14:51:00;1.33;;;1.23;;
13048;SDS011;6591;51.446;5.404;2023-07-29T14:53:27;1.05;;;0.88;;
13048;SDS011;6591;51.446;5.404;2023-07-29T14:55:54;1.20;;;1.10;;
13048;SDS011;6591;51.446;5.404;2023-07-29T14:58:21;1.35;;;1.25;;
13048;SDS011;6591;51.446;5.404;2023-07-29T15:00:49;1.23;;;1.13;;
13048;SDS011;6591;51.446;5.404;2023-07-29T15:03:16;1.52;;;1.40;;
13048;SDS011;6591;51.446;5.404;2023-07-29T15:05:44;1.20;;;1.10;;
13048;SDS011;6591;51.446;5.404;2023-07-29T15:08:11;1.52;;;1.20;;
13048;SDS011;6591;51.446;5.404;2023-07-29T15:10:38;0.95;;;0.95;;
13048;SDS011;6591;51.446;5.404;2023-07-29T15:13:05;1.35;;;1.20;;